Time;durP1;ratioP1;P1;durP2;ratioP2;P2;SDS_P1;SDS_P2;PMS_P1;PMS_P2;Temp;Humidity;BMP_temperature;BMP_pressure;BME280_temperature;BME280_humidity;BME280_pressure;Samples;Min_cycle;Max_cycle;Signal;HPM_P1;HPM_P2
2022/04/27 00:01:25;;;;;;;0.60;0.40;;;;;;;16.31;95.64;95217.50;5134177;27;20901;-54
2022/04/27 00:03:54;;;;;;;0.40;0.20;;;;;;;16.43;95.96;95215.81;5134386;27;20425;-54
2022/04/27 00:06:23;;;;;;;0.40;0.20;;;;;;;16.44;92.79;95216.63;5134225;27;20526;-53
2022/04/27 00:08:51;;;;;;;0.40;0.20;;;;;;;16.17;95.64;95217.56;5133871;27;20450;-54
2022/04/27 00:11:21;;;;;;;0.40;0.40;;;;;;;16.25;93.78;95190.09;5133775;27;20945;-54
2022/04/27 00:13:49;;;;;;;0.40;0.20;;;;;;;16.70;93.24;95214.06;5134132;27;20425;-53
2022/04/27 00:16:18;;;;;;;0.40;0.30;;;;;;;16.95;89.82;95216.03;5134082;27;20462;-54
2022/04/27 00:18:47;;;;;;;0.40;0.20;;;;;;;17.15;87.01;95212.78;5133966;27;20418;-54
2022/04/27 00:21:15;;;;;;;0.40;0.20;;;;;;;17.23;86.13;95216.56;5133742;27;20501;-54
2022/04/27 00:23:44;;;;;;;0.40;0.20;;;;;;;17.24;85.97;95210.09;5133870;27;20427;-54
2022/04/27 00:26:12;;;;;;;25.97;0.70;;;;;;;17.28;85.09;95214.50;5134032;27;20467;-54
2022/04/27 00:28:42;;;;;;;0.40;0.20;;;;;;;17.16;85.88;95198.28;5133763;27;20494;-54
2022/04/27 00:31:10;;;;;;;0.40;0.20;;;;;;;17.23;86.44;95208.53;5133657;27;20517;-54
2022/04/27 00:33:38;;;;;;;0.40;0.30;;;;;;;17.16;87.14;95208.97;5133664;27;20426;-54
2022/04/27 00:36:07;;;;;;;0.37;0.20;;;;;;;17.18;88.21;95208.69;5133585;27;20474;-54
2022/04/27 00:38:35;;;;;;;0.40;0.20;;;;;;;17.13;88.29;95201.56;5133586;27;20450;-54
2022/04/27 00:41:04;;;;;;;0.40;0.20;;;;;;;17.08;89.73;95202.50;5133371;27;20553;-54
2022/04/27 00:43:37;;;;;;;0.50;0.50;;;;;;;17.05;90.90;95202.38;5133387;27;20557;-54
2022/04/27 00:46:07;;;;;;;0.40;0.20;;;;;;;16.59;91.36;95143.19;5133408;27;20988;-54
2022/04/27 00:48:39;;;;;;;0.40;0.27;;;;;;;16.60;90.83;95155.47;5132724;27;20621;-54
2022/04/27 00:51:07;;;;;;;0.40;0.23;;;;;;;16.95;90.99;95208.00;5132661;27;20423;-54
2022/04/27 00:53:37;;;;;;;0.60;0.43;;;;;;;16.90;90.28;95208.91;5133608;27;20467;-54
2022/04/27 00:56:05;;;;;;;0.40;0.30;;;;;;;16.91;92.23;95217.75;5133495;27;20769;-54
2022/04/27 00:58:34;;;;;;;0.33;0.20;;;;;;;16.86;91.93;95212.53;5133240;27;20450;-54
2022/04/27 01:01:20;;;;;;;0.40;0.20;;;;;;;16.82;91.87;95222.31;5133335;27;20839;-54
2022/04/27 01:03:49;;;;;;;0.40;0.30;;;;;;;16.76;91.53;95213.63;5133040;27;20517;-54
2022/04/27 01:06:17;;;;;;;0.40;0.40;;;;;;;16.68;91.53;95211.69;5133063;27;20434;-54
2022/04/27 01:08:46;;;;;;;0.30;0.20;;;;;;;16.25;97.26;95211.47;5133315;27;20454;-54
2022/04/27 01:11:15;;;;;;;0.40;0.27;;;;;;;15.65;100.00;95221.00;5133268;27;20427;-54
2022/04/27 01:13:45;;;;;;;0.40;0.30;;;;;;;15.96;100.00;95216.50;5133293;27;20509;-53
2022/04/27 01:16:13;;;;;;;0.40;0.20;;;;;;;15.83;100.00;95212.03;5133255;27;20783;-53
2022/04/27 01:18:44;;;;;;;0.50;0.40;;;;;;;15.99;100.00;95215.88;5133217;27;20872;-53
2022/04/27 01:21:14;;;;;;;0.40;0.30;;;;;;;16.10;100.00;95205.72;5132740;27;20474;-53
2022/04/27 01:23:42;;;;;;;0.30;0.20;;;;;;;15.89;100.00;95206.22;5132840;27;20911;-53
2022/04/27 01:26:10;;;;;;;0.40;0.30;;;;;;;15.54;100.00;95208.94;5132622;27;20517;-53
2022/04/27 01:28:39;;;;;;;0.40;0.20;;;;;;;15.48;100.00;95210.19;5133103;27;20422;-53
2022/04/27 01:31:09;;;;;;;0.37;0.20;;;;;;;15.69;100.00;95198.72;5132597;27;20433;-53
2022/04/27 01:33:38;;;;;;;0.40;0.30;;;;;;;14.97;100.00;95208.59;5132787;27;20474;-53
2022/04/27 01:36:08;;;;;;;0.40;0.30;;;;;;;14.75;100.00;95213.81;5132601;27;20533;-53
2022/04/27 01:38:40;;;;;;;0.40;0.20;;;;;;;14.64;100.00;95212.47;5132889;27;20445;-54
2022/04/27 01:41:08;;;;;;;0.50;0.30;;;;;;;14.93;100.00;95215.59;5132765;28;20427;-53
2022/04/27 01:43:37;;;;;;;0.40;0.30;;;;;;;15.21;100.00;95208.34;5132529;28;20596;-53
2022/04/27 01:46:06;;;;;;;0.40;0.30;;;;;;;15.56;100.00;95209.47;5132750;28;20507;-53
2022/04/27 01:48:35;;;;;;;0.40;0.30;;;;;;;15.75;100.00;95210.06;5132535;28;20426;-53
2022/04/27 01:51:03;;;;;;;0.50;0.50;;;;;;;15.77;100.00;95214.03;5132451;28;20522;-53
2022/04/27 01:56:19;;;;;;;0.50;0.50;;;;;;;14.10;100.00;95223.03;5132406;28;20422;-53
2022/04/27 01:58:47;;;;;;;0.40;0.30;;;;;;;14.28;100.00;95224.84;5132456;28;20458;-53
2022/04/27 02:01:15;;;;;;;0.70;0.70;;;;;;;14.09;100.00;95227.56;5133070;27;20427;-54
2022/04/27 02:03:44;;;;;;;0.40;0.30;;;;;;;14.10;100.00;95228.34;5136772;27;20485;-53
2022/04/27 02:06:16;;;;;;;0.40;0.20;;;;;;;14.74;100.00;95230.16;5136651;27;20426;-53
2022/04/27 02:08:44;;;;;;;0.40;0.20;;;;;;;14.91;100.00;95231.13;5135585;27;20912;-52
2022/04/27 02:11:14;;;;;;;1.03;0.53;;;;;;;15.16;100.00;95219.91;5136318;27;20924;-53
2022/04/27 02:13:44;;;;;;;0.40;0.20;;;;;;;15.03;100.00;95207.38;5136779;27;20882;-53
2022/04/27 02:16:13;;;;;;;0.40;0.30;;;;;;;15.20;100.00;95231.56;5136591;27;20458;-53
2022/04/27 02:18:41;;;;;;;0.40;0.20;;;;;;;15.32;100.00;95227.59;5136365;27;20479;-54
2022/04/27 02:21:09;;;;;;;0.30;0.20;;;;;;;15.35;100.00;95232.34;5136187;27;20422;-54
2022/04/27 02:23:38;;;;;;;0.40;0.40;;;;;;;15.09;100.00;95234.75;5136072;27;20509;-54
2022/04/27 02:26:06;;;;;;;0.40;0.30;;;;;;;15.21;100.00;95230.50;5136229;27;20454;-54
2022/04/27 02:28:34;;;;;;;0.40;0.20;;;;;;;15.22;100.00;95233.94;5135991;27;20555;-53
2022/04/27 02:31:04;;;;;;;0.40;0.30;;;;;;;15.07;100.00;95232.41;5136254;27;20453;-54
2022/04/27 02:33:33;;;;;;;0.40;0.30;;;;;;;15.17;100.00;95224.19;5136221;27;20505;-53
2022/04/27 02:36:19;;;;;;;1.07;0.40;;;;;;;15.21;100.00;95229.69;5136045;27;20410;-54
2022/04/27 02:38:47;;;;;;;1.57;1.13;;;;;;;15.22;100.00;95221.41;5135831;27;20517;-54
2022/04/27 02:41:15;;;;;;;0.40;0.30;;;;;;;15.21;100.00;95224.34;5135772;27;20501;-54
2022/04/27 02:43:43;;;;;;;0.40;0.20;;;;;;;15.01;100.00;95230.13;5135342;27;20586;-54
2022/04/27 02:46:13;;;;;;;0.40;0.20;;;;;;;14.98;100.00;95222.69;5135856;27;20442;-54
2022/04/27 02:51:48;;;;;;;0.40;0.30;;;;;;;15.03;100.00;95218.06;5135581;27;20428;-54
2022/04/27 02:51:51;;;;;;;0.90;0.67;;;;;;;15.01;100.00;95222.91;5135577;27;20521;-54
2022/04/27 02:54:21;;;;;;;0.40;0.30;;;;;;;15.04;100.00;95221.53;5135956;27;20503;-53
2022/04/27 02:56:50;;;;;;;0.40;0.20;;;;;;;14.64;100.00;95223.13;5135400;27;20544;-53
2022/04/27 02:59:18;;;;;;;0.40;0.20;;;;;;;14.75;100.00;95227.16;5134608;27;20479;-53
2022/04/27 03:01:49;;;;;;;0.40;0.20;;;;;;;14.79;100.00;95225.50;5135378;27;20522;-54
2022/04/27 03:04:18;;;;;;;0.40;0.20;;;;;;;14.83;100.00;95229.16;5135407;27;20431;-53
2022/04/27 03:06:46;;;;;;;0.50;0.50;;;;;;;14.72;100.00;95232.31;5135273;27;20518;-53
2022/04/27 03:09:14;;;;;;;5.03;1.70;;;;;;;14.73;100.00;95231.22;5135291;27;20501;-53
2022/04/27 03:11:43;;;;;;;0.40;0.30;;;;;;;14.81;100.00;95225.19;5134422;27;20517;-53
2022/04/27 03:14:11;;;;;;;0.60;0.47;;;;;;;14.71;100.00;95231.53;5134798;27;20856;-53
2022/04/27 03:16:39;;;;;;;0.40;0.30;;;;;;;14.70;100.00;95237.94;5135083;27;20462;-53
2022/04/27 03:19:09;;;;;;;11.10;0.50;;;;;;;14.60;100.00;95244.25;5135083;27;20469;-53
2022/04/27 03:21:37;;;;;;;0.40;0.20;;;;;;;14.61;100.00;95247.72;5134934;27;20510;-53
2022/04/27 03:24:06;;;;;;;0.40;0.30;;;;;;;14.76;100.00;95255.44;5134933;27;20497;-53
2022/04/27 03:26:34;;;;;;;0.40;0.20;;;;;;;14.79;100.00;95252.19;5134880;27;20859;-53
2022/04/27 03:29:04;;;;;;;0.50;0.30;;;;;;;14.65;100.00;95261.28;5134780;27;20876;-53
2022/04/27 03:31:33;;;;;;;0.40;0.30;;;;;;;14.34;100.00;95263.69;5135267;27;20513;-54
2022/04/27 03:34:02;;;;;;;0.40;0.20;;;;;;;14.51;100.00;95266.59;5134826;27;20454;-54
2022/04/27 03:36:32;;;;;;;0.53;0.53;;;;;;;13.92;100.00;95203.34;5134617;27;20466;-53
2022/04/27 03:39:01;;;;;;;0.53;0.47;;;;;;;14.27;100.00;95268.59;5134599;27;20450;-53
2022/04/27 03:41:29;;;;;;;0.43;0.30;;;;;;;14.27;100.00;95268.59;5134593;27;20469;-54
2022/04/27 03:43:58;;;;;;;0.40;0.30;;;;;;;14.17;100.00;95276.75;5134232;27;20490;-53
2022/04/27 03:46:27;;;;;;;0.53;0.53;;;;;;;14.18;100.00;95278.34;5134630;27;20951;-54
2022/04/27 03:49:15;;;;;;;0.40;0.30;;;;;;;14.35;100.00;95286.59;5134487;27;20453;-54
2022/04/27 03:51:45;;;;;;;0.80;0.80;;;;;;;14.21;100.00;95288.41;5134798;27;20516;-53
2022/04/27 03:54:13;;;;;;;0.40;0.20;;;;;;;14.43;100.00;95288.59;5134730;27;20509;-54
2022/04/27 03:56:42;;;;;;;0.40;0.30;;;;;;;14.28;100.00;95289.63;5134455;27;20493;-54
2022/04/27 03:59:10;;;;;;;0.40;0.20;;;;;;;14.44;100.00;95298.19;5133928;27;20483;-54
2022/04/27 04:01:39;;;;;;;0.40;0.20;;;;;;;14.43;100.00;95297.38;5134211;27;20455;-53
2022/04/27 04:04:07;;;;;;;10.10;0.37;;;;;;;14.51;100.00;95291.38;5134609;27;20470;-54
2022/04/27 04:06:38;;;;;;;0.40;0.20;;;;;;;14.45;100.00;95297.09;5134588;27;20991;-53
2022/04/27 04:09:09;;;;;;;0.50;0.30;;;;;;;14.53;100.00;95291.09;5134167;27;20450;-53
2022/04/27 04:11:38;;;;;;;0.50;0.40;;;;;;;14.60;100.00;95302.16;5134457;27;20860;-53
2022/04/27 04:14:06;;;;;;;1.67;0.63;;;;;;;14.44;100.00;95306.19;5134085;27;20506;-53
2022/04/27 04:16:34;;;;;;;0.60;0.60;;;;;;;13.37;100.00;95311.50;5134190;27;20509;-53
2022/04/27 04:19:03;;;;;;;0.40;0.30;;;;;;;13.11;100.00;95318.22;5133831;27;20431;-53
2022/04/27 04:21:31;;;;;;;0.40;0.30;;;;;;;13.07;100.00;95325.19;5133904;27;20920;-53
2022/04/27 04:23:59;;;;;;;0.80;0.80;;;;;;;13.18;100.00;95319.47;5133348;27;20509;-53
2022/04/27 04:29:15;;;;;;;0.40;0.40;;;;;;;13.71;100.00;95325.41;5133062;27;20529;-53
2022/04/27 04:31:43;;;;;;;0.40;0.30;;;;;;;13.52;100.00;95323.81;5132963;27;20469;-54
2022/04/27 04:34:11;;;;;;;0.90;0.60;;;;;;;13.83;100.00;95317.81;5132719;27;20426;-53
2022/04/27 04:36:40;;;;;;;0.40;0.30;;;;;;;14.50;100.00;95334.34;5133618;27;20411;-53
2022/04/27 04:39:08;;;;;;;2.67;0.30;;;;;;;13.96;100.00;95335.69;5133454;27;20466;-53
2022/04/27 04:41:38;;;;;;;0.40;0.33;;;;;;;13.94;100.00;95343.19;5133260;27;20510;-54
2022/04/27 04:44:06;;;;;;;0.40;0.30;;;;;;;14.01;100.00;95338.28;5133196;27;20548;-55
2022/04/27 04:46:35;;;;;;;0.60;0.53;;;;;;;14.56;100.00;95343.84;5132577;27;20510;-54
2022/04/27 04:49:03;;;;;;;0.93;0.93;;;;;;;14.64;100.00;95292.50;5133550;27;20446;-51
2022/04/27 04:51:32;;;;;;;0.53;0.40;;;;;;;15.04;100.00;95339.75;5132870;27;20846;-51
2022/04/27 04:54:04;;;;;;;0.40;0.20;;;;;;;14.99;100.00;95345.19;5133176;27;20423;-51
2022/04/27 04:56:32;;;;;;;0.40;0.30;;;;;;;15.27;100.00;95338.78;5133470;27;20453;-50
2022/04/27 04:59:02;;;;;;;0.50;0.40;;;;;;;15.42;100.00;95339.53;5133241;27;20514;-50
2022/04/27 05:01:31;;;;;;;0.40;0.30;;;;;;;15.41;100.00;95345.97;5133274;27;20427;-52
2022/04/27 05:03:59;;;;;;;0.37;0.27;;;;;;;15.53;100.00;95347.09;5133078;27;21008;-51
2022/04/27 05:06:33;;;;;;;0.63;0.63;;;;;;;15.81;100.00;95350.50;5133064;27;20463;-51
2022/04/27 05:09:01;;;;;;;0.70;0.30;;;;;;;15.97;100.00;95353.59;5132382;27;20454;-50
2022/04/27 05:11:30;;;;;;;0.70;0.70;;;;;;;15.91;100.00;95347.59;5132512;27;20422;-51
2022/04/27 05:13:58;;;;;;;0.80;0.60;;;;;;;15.71;100.00;95335.47;5132962;27;20434;-51
2022/04/27 05:16:30;;;;;;;0.50;0.43;;;;;;;15.36;100.00;95281.97;5133178;27;20868;-50
2022/04/27 05:18:58;;;;;;;1.30;0.50;;;;;;;14.88;100.00;95362.47;5133323;27;20423;-50
2022/04/27 05:21:27;;;;;;;0.50;0.43;;;;;;;14.91;100.00;95350.41;5133170;27;20839;-50
2022/04/27 05:23:56;;;;;;;0.50;0.50;;;;;;;15.36;100.00;95348.75;5132833;27;20454;-49
2022/04/27 05:26:24;;;;;;;0.77;0.47;;;;;;;15.39;100.00;95354.28;5133021;27;20443;-51
2022/04/27 05:31:55;;;;;;;0.50;0.40;;;;;;;16.11;100.00;95352.50;5132773;27;20469;-51
2022/04/27 05:34:24;;;;;;;0.87;0.87;;;;;;;16.54;100.00;95352.03;5133043;27;20777;-51
2022/04/27 05:36:52;;;;;;;2.13;0.77;;;;;;;16.39;100.00;95351.25;5132594;27;20927;-52
2022/04/27 05:39:21;;;;;;;0.60;0.60;;;;;;;16.47;100.00;95355.09;5131809;27;20961;-50
2022/04/27 05:41:51;;;;;;;0.40;0.30;;;;;;;17.05;100.00;95355.75;5132591;28;20478;-52
2022/04/27 05:44:21;;;;;;;0.40;0.37;;;;;;;17.39;99.12;95332.88;5132237;28;20568;-52
2022/04/27 05:46:54;;;;;;;0.60;0.40;;;;;;;17.46;97.28;95349.28;5132794;28;20427;-51
2022/04/27 05:49:22;;;;;;;0.50;0.37;;;;;;;17.42;94.42;95349.13;5132653;28;20462;-51
2022/04/27 05:51:51;;;;;;;0.70;0.70;;;;;;;16.98;99.05;95351.94;5132451;28;20521;-51
2022/04/27 05:54:19;;;;;;;0.57;0.40;;;;;;;17.75;95.65;95342.31;5132630;28;20424;-51
2022/04/27 05:56:49;;;;;;;0.40;0.40;;;;;;;17.44;92.56;95338.09;5132843;28;20901;-51
2022/04/27 05:59:17;;;;;;;0.60;0.60;;;;;;;17.07;94.62;95345.56;5132441;28;20514;-51
2022/04/27 06:01:46;;;;;;;0.50;0.50;;;;;;;17.67;91.53;95353.81;5132367;28;20430;-51
2022/04/27 06:04:23;;;;;;;1.37;1.10;;;;;;;18.07;87.16;95327.66;5132672;28;20466;-50
2022/04/27 06:06:54;;;;;;;0.70;0.70;;;;;;;18.42;86.71;95333.00;5132093;28;20429;-50
2022/04/27 06:09:22;;;;;;;0.50;0.50;;;;;;;18.88;86.05;95346.50;5132422;28;20846;-50
2022/04/27 06:11:51;;;;;;;1.00;0.93;;;;;;;18.60;89.66;95339.94;5131974;28;20434;-50
2022/04/27 06:14:20;;;;;;;4.50;0.63;;;;;;;18.88;87.12;95339.25;5131543;28;20483;-51
2022/04/27 06:16:48;;;;;;;12.40;1.13;;;;;;;18.55;89.69;95332.84;5132446;28;20499;-51
2022/04/27 06:19:16;;;;;;;0.50;0.40;;;;;;;18.71;89.55;95341.19;5132281;28;20415;-51
2022/04/27 06:21:46;;;;;;;0.60;0.57;;;;;;;18.66;84.89;95331.41;5131911;28;20457;-51
2022/04/27 06:24:14;;;;;;;0.73;0.60;;;;;;;19.10;82.80;95340.13;5132205;28;20469;-51
2022/04/27 06:26:43;;;;;;;1.57;1.47;;;;;;;19.25;80.81;95340.38;5132008;28;20428;-51
2022/04/27 06:29:11;;;;;;;0.40;0.30;;;;;;;20.04;77.58;95326.97;5132185;28;20521;-52
2022/04/27 06:31:40;;;;;;;0.50;0.40;;;;;;;20.76;70.45;95320.31;5132005;28;21098;-52
2022/04/27 06:34:08;;;;;;;0.50;0.40;;;;;;;20.49;69.73;95327.06;5132343;28;20493;-51
2022/04/27 06:36:38;;;;;;;2.50;1.53;;;;;;;20.62;71.57;95328.69;5132207;28;20474;-52
2022/04/27 06:39:12;;;;;;;2.07;1.97;;;;;;;20.01;70.77;95333.00;5132010;28;20470;-52
2022/04/27 06:41:41;;;;;;;0.50;0.33;;;;;;;20.47;67.81;95329.31;5132384;28;20588;-52
2022/04/27 06:44:09;;;;;;;0.50;0.40;;;;;;;20.85;65.14;95337.97;5131725;28;20478;-52
2022/04/27 06:46:38;;;;;;;2.63;0.70;;;;;;;20.61;61.80;95332.53;5132211;28;20498;-52
2022/04/27 06:49:06;;;;;;;0.50;0.30;;;;;;;21.44;62.93;95330.34;5133995;27;20464;-53
2022/04/27 06:51:35;;;;;;;1.87;0.53;;;;;;;21.39;59.23;95330.56;5135673;27;20430;-53
2022/04/27 06:54:04;;;;;;;0.40;0.30;;;;;;;21.16;59.39;95331.31;5135691;27;20506;-53
2022/04/27 06:56:34;;;;;;;3.30;0.63;;;;;;;21.95;55.11;95328.84;5135562;27;20936;-53
2022/04/27 06:59:02;;;;;;;0.50;0.30;;;;;;;22.22;53.07;95321.13;5135360;27;20897;-54
2022/04/27 07:01:31;;;;;;;0.73;0.40;;;;;;;22.78;53.54;95328.13;5135588;27;20462;-54
2022/04/27 07:04:07;;;;;;;0.47;0.37;;;;;;;22.63;51.73;95326.97;5135772;27;21024;-55
2022/04/27 07:06:36;;;;;;;0.60;0.60;;;;;;;22.71;49.14;95331.44;5135329;27;20430;-55
2022/04/27 07:09:06;;;;;;;0.90;0.90;;;;;;;22.45;49.62;95322.16;5134883;27;20443;-56
2022/04/27 07:11:36;;;;;;;0.50;0.40;;;;;;;22.24;51.64;95318.88;5135402;27;20518;-56
2022/04/27 07:14:04;;;;;;;0.40;0.30;;;;;;;22.83;49.44;95314.34;5135207;27;20525;-57
2022/04/27 07:16:33;;;;;;;0.63;0.63;;;;;;;23.13;49.40;95318.22;5135317;27;20423;-56
2022/04/27 07:19:01;;;;;;;0.50;0.40;;;;;;;23.53;48.77;95318.06;5135539;27;20423;-56
2022/04/27 07:21:30;;;;;;;0.50;0.43;;;;;;;23.07;47.90;95278.28;5135592;27;20441;-54
2022/04/27 07:24:02;;;;;;;0.40;0.30;;;;;;;24.25;45.86;95315.81;5135272;27;20430;-54
2022/04/27 07:26:30;;;;;;;0.50;0.40;;;;;;;24.14;45.23;95314.78;5134843;27;20482;-54
2022/04/27 07:29:00;;;;;;;14.33;0.50;;;;;;;24.45;45.93;95241.53;5134267;27;20588;-55
2022/04/27 07:31:28;;;;;;;2.80;1.83;;;;;;;25.06;46.09;95301.91;5134583;27;20931;-55
2022/04/27 07:33:57;;;;;;;1.60;0.40;;;;;;;25.89;43.13;95294.72;5134573;27;20501;-53
2022/04/27 07:36:25;;;;;;;0.50;0.50;;;;;;;25.58;40.82;95298.53;5134646;27;20526;-54
2022/04/27 07:38:58;;;;;;;0.97;0.83;;;;;;;24.63;43.04;95294.91;5135008;27;20421;-54
2022/04/27 07:41:26;;;;;;;0.67;0.67;;;;;;;24.31;43.12;95303.56;5135050;27;20453;-54
2022/04/27 07:43:54;;;;;;;0.77;0.50;;;;;;;25.93;40.81;95292.06;5134605;27;20513;-54
2022/04/27 07:46:24;;;;;;;0.40;0.30;;;;;;;25.78;39.99;95297.25;5134428;27;20458;-54
2022/04/27 07:48:55;;;;;;;1.03;0.60;;;;;;;25.96;40.65;95294.03;5134919;27;20979;-55
2022/04/27 07:51:24;;;;;;;6.17;1.60;;;;;;;26.30;40.23;95292.94;5134574;27;20955;-54
2022/04/27 07:53:53;;;;;;;15.07;1.20;;;;;;;26.53;38.97;95285.47;5134587;27;20449;-54
2022/04/27 07:56:21;;;;;;;3.13;0.83;;;;;;;26.67;39.21;95288.34;5134517;27;20479;-53
2022/04/27 07:58:50;;;;;;;0.40;0.40;;;;;;;26.65;38.70;95277.06;5134259;27;20465;-54
2022/04/27 08:01:18;;;;;;;1.23;1.13;;;;;;;26.28;38.87;95287.91;5134219;27;20427;-54
2022/04/27 08:03:48;;;;;;;1.23;0.47;;;;;;;27.06;40.41;95286.03;5134277;27;20435;-54
2022/04/27 08:06:18;;;;;;;0.40;0.30;;;;;;;27.27;39.71;95283.53;5134261;27;20995;-54
2022/04/27 08:08:46;;;;;;;0.50;0.40;;;;;;;27.44;38.14;95279.41;5134197;27;20427;-54
2022/04/27 08:11:16;;;;;;;0.40;0.30;;;;;;;27.65;36.18;95283.03;5134193;27;20426;-54
2022/04/27 08:13:44;;;;;;;1.23;0.90;;;;;;;28.58;34.87;95274.22;5134288;27;20463;-52
2022/04/27 08:16:12;;;;;;;0.40;0.40;;;;;;;28.98;34.93;95269.66;5134129;27;20435;-54
2022/04/27 08:18:41;;;;;;;0.60;0.60;;;;;;;28.90;33.14;95266.91;5134382;27;20487;-53
2022/04/27 08:21:15;;;;;;;0.40;0.40;;;;;;;29.06;34.50;95263.03;5134022;27;20509;-53
2022/04/27 08:23:46;;;;;;;2.40;0.97;;;;;;;29.77;31.93;95255.63;5134185;27;20429;-53
2022/04/27 08:26:15;;;;;;;0.70;0.37;;;;;;;27.89;33.99;95210.81;5134109;27;20882;-52
2022/04/27 08:28:45;;;;;;;0.40;0.30;;;;;;;28.83;35.10;95261.44;5133789;27;20430;-53
2022/04/27 08:31:16;;;;;;;2.20;2.10;;;;;;;27.62;35.39;95269.41;5133729;27;20483;-53
2022/04/27 08:33:44;;;;;;;0.40;0.30;;;;;;;27.70;36.63;95265.59;5134085;27;20422;-53
2022/04/27 08:36:14;;;;;;;0.50;0.50;;;;;;;27.98;35.28;95262.25;5133697;27;20431;-53
2022/04/27 08:38:57;;;;;;;1.27;1.17;;;;;;;28.90;35.25;95255.22;5133648;27;20433;-52
2022/04/27 08:41:28;;;;;;;0.40;0.30;;;;;;;30.82;32.76;95251.75;5133803;27;20847;-52
2022/04/27 08:43:57;;;;;;;0.40;0.30;;;;;;;31.35;29.69;95234.97;5133379;27;20512;-52
2022/04/27 08:46:28;;;;;;;0.30;0.20;;;;;;;32.20;30.73;95234.19;5133617;27;20480;-52
2022/04/27 08:48:56;;;;;;;0.40;0.40;;;;;;;30.41;31.61;95235.16;5133459;27;20426;-52
2022/04/27 08:51:29;;;;;;;0.40;0.30;;;;;;;30.11;34.46;95229.38;5133261;27;20465;-52
2022/04/27 08:53:58;;;;;;;0.40;0.30;;;;;;;30.03;31.85;95228.63;5133611;27;20444;-53
2022/04/27 08:56:27;;;;;;;17.97;1.17;;;;;;;29.63;32.71;95231.84;5133317;27;20504;-53
2022/04/27 08:58:56;;;;;;;0.80;0.67;;;;;;;28.68;33.25;95226.34;5133233;27;20454;-53
2022/04/27 09:01:24;;;;;;;0.40;0.30;;;;;;;30.79;31.67;95219.69;5133236;27;20518;-53
2022/04/27 09:03:53;;;;;;;0.70;0.70;;;;;;;32.60;29.51;95214.88;5133385;27;20465;-53
2022/04/27 09:06:22;;;;;;;0.40;0.40;;;;;;;33.35;27.54;95209.03;5132450;27;20473;-53
2022/04/27 09:08:53;;;;;;;0.50;0.40;;;;;;;33.28;27.34;95203.66;5133005;27;20875;-53
2022/04/27 09:11:25;;;;;;;0.40;0.30;;;;;;;32.23;29.81;95209.44;5132591;27;20797;-54
2022/04/27 09:13:55;;;;;;;0.50;0.40;;;;;;;33.06;28.39;95196.97;5132406;27;20780;-54
2022/04/27 09:16:25;;;;;;;0.40;0.30;;;;;;;33.02;27.86;95198.94;5132920;27;21016;-54
2022/04/27 09:22:00;;;;;;;0.50;0.40;;;;;;;32.55;28.09;95198.88;5132913;27;20487;-53
2022/04/27 09:24:46;;;;;;;2.80;0.53;;;;;;;32.44;28.86;95181.72;5133094;27;20471;-55
2022/04/27 09:27:18;;;;;;;0.53;0.40;;;;;;;33.45;28.13;95185.31;5132692;27;20577;-53
2022/04/27 09:29:58;;;;;;;0.40;0.30;;;;;;;34.13;26.69;95185.69;5132676;27;20991;-53
2022/04/27 09:32:26;;;;;;;0.67;0.40;;;;;;;32.71;27.88;95179.03;5131691;27;20450;-53
2022/04/27 09:34:56;;;;;;;2.70;2.60;;;;;;;31.72;28.51;95184.94;5132618;27;20935;-53
2022/04/27 09:37:27;;;;;;;0.40;0.30;;;;;;;32.21;29.06;95172.63;5132917;27;20524;-53
2022/04/27 09:40:06;;;;;;;0.67;0.67;;;;;;;31.95;29.47;95172.13;5132960;27;20423;-53
2022/04/27 09:42:35;;;;;;;0.47;0.47;;;;;;;30.69;30.71;95179.50;5132604;27;20509;-53
2022/04/27 09:45:17;;;;;;;0.40;0.30;;;;;;;28.50;33.01;95185.38;5132450;28;20552;-57
2022/04/27 09:47:47;;;;;;;0.50;0.33;;;;;;;28.20;34.17;95180.22;5132543;28;20500;-57
2022/04/27 09:50:16;;;;;;;0.40;0.30;;;;;;;28.59;34.49;95185.75;5132510;28;20517;-57
2022/04/27 09:52:45;;;;;;;0.70;0.67;;;;;;;27.05;36.26;95191.97;5132860;28;20450;-58
2022/04/27 09:55:15;;;;;;;0.40;0.40;;;;;;;27.83;36.21;95185.09;5132528;28;20497;-57
2022/04/27 09:57:54;;;;;;;0.60;0.60;;;;;;;27.61;35.79;95180.72;5132253;28;20441;-57
2022/04/27 10:00:23;;;;;;;1.17;0.50;;;;;;;28.91;34.31;95175.72;5132873;28;20470;-57
2022/04/27 10:02:53;;;;;;;1.93;0.37;;;;;;;29.68;33.11;95162.38;5132458;28;20525;-57
2022/04/27 10:05:22;;;;;;;0.50;0.33;;;;;;;30.61;31.25;95158.88;5132146;28;20487;-57
2022/04/27 10:07:52;;;;;;;0.40;0.30;;;;;;;30.98;31.04;95171.91;5132297;28;20534;-57
2022/04/27 10:10:24;;;;;;;2.10;0.60;;;;;;;30.71;30.92;95166.22;5132406;28;20484;-57
2022/04/27 10:12:54;;;;;;;0.40;0.30;;;;;;;32.54;29.41;95166.34;5132080;28;20435;-57
2022/04/27 10:15:23;;;;;;;0.40;0.30;;;;;;;32.93;28.39;95161.06;5132693;28;20495;-57
2022/04/27 10:17:52;;;;;;;0.30;0.30;;;;;;;33.48;27.12;95157.78;5132641;28;20483;-57
2022/04/27 10:20:31;;;;;;;2.30;0.50;;;;;;;32.73;25.90;95151.16;5132737;28;20561;-57
2022/04/27 10:23:19;;;;;;;0.40;0.30;;;;;;;32.77;27.57;95149.13;5132665;27;20422;-57
2022/04/27 10:26:11;;;;;;;1.53;0.73;;;;;;;32.17;20.85;95147.22;5136523;27;20470;-57
2022/04/27 10:28:44;;;;;;;0.40;0.30;;;;;;;32.67;22.65;95137.13;5136196;27;20465;-56
2022/04/27 10:31:14;;;;;;;0.40;0.30;;;;;;;31.49;21.75;95105.34;5135596;27;20441;-57
2022/04/27 10:33:44;;;;;;;0.90;0.40;;;;;;;32.34;21.26;95136.00;5136063;27;20449;-57
2022/04/27 10:36:24;;;;;;;0.30;0.20;;;;;;;32.51;23.70;95124.03;5135877;27;20422;-56
2022/04/27 10:39:19;;;;;;;1.20;1.13;;;;;;;32.68;23.01;95124.97;5135995;27;20455;-57
2022/04/27 10:41:56;;;;;;;0.40;0.30;;;;;;;33.47;21.00;95112.25;5136140;27;20421;-58
2022/04/27 10:44:58;;;;;;;0.40;0.30;;;;;;;32.09;19.59;95115.59;5135721;27;20477;-57
2022/04/27 10:47:35;;;;;;;0.30;0.30;;;;;;;33.64;20.27;95115.91;5135957;27;20902;-57
2022/04/27 10:50:33;;;;;;;3.03;1.23;;;;;;;32.69;19.09;95084.59;5136230;27;20516;-57
2022/04/27 10:53:17;;;;;;;0.40;0.30;;;;;;;33.10;19.51;95110.56;5136033;27;20868;-57
2022/04/27 10:55:59;;;;;;;0.30;0.30;;;;;;;33.12;20.39;95052.47;5135051;27;20418;-57
2022/04/27 10:58:37;;;;;;;0.30;0.20;;;;;;;33.63;20.85;95115.13;5135683;27;20505;-58
2022/04/27 11:01:20;;;;;;;3.67;0.30;;;;;;;33.66;21.08;95106.03;5135738;27;20433;-58
2022/04/27 11:04:00;;;;;;;0.40;0.30;;;;;;;33.93;21.12;95102.38;5139862;27;20441;-58
2022/04/27 11:06:30;;;;;;;0.40;0.20;;;;;;;34.84;20.42;95096.81;5135483;27;20469;-58
2022/04/27 11:09:13;;;;;;;0.30;0.30;;;;;;;34.65;20.80;95090.19;5135298;27;20513;-58
2022/04/27 11:11:51;;;;;;;0.40;0.30;;;;;;;34.64;20.79;95096.88;5135559;27;20496;-57
2022/04/27 11:14:27;;;;;;;2.60;0.40;;;;;;;33.45;22.64;95076.19;5135280;27;20974;-57
2022/04/27 11:16:56;;;;;;;0.50;0.40;;;;;;;33.31;22.34;95098.44;5135294;27;20449;-57
2022/04/27 11:19:35;;;;;;;0.60;0.40;;;;;;;32.32;23.27;95089.03;5135372;27;20449;-58
2022/04/27 11:22:15;;;;;;;0.67;0.40;;;;;;;32.09;23.22;95090.91;5135256;27;20834;-56
2022/04/27 11:24:48;;;;;;;0.30;0.30;;;;;;;30.12;25.24;95088.81;5135140;27;20425;-57
2022/04/27 11:27:23;;;;;;;0.60;0.40;;;;;;;30.26;25.70;95093.41;5135277;27;20516;-57
2022/04/27 11:29:55;;;;;;;0.40;0.30;;;;;;;31.85;24.61;95099.03;5135101;27;20465;-57
2022/04/27 11:32:23;;;;;;;0.40;0.40;;;;;;;32.18;23.58;95082.97;5134838;27;20869;-58
2022/04/27 11:34:52;;;;;;;0.30;0.20;;;;;;;32.53;23.71;95077.00;5134347;27;20469;-58
2022/04/27 11:37:22;;;;;;;0.67;0.47;;;;;;;31.56;24.61;95078.63;5135129;27;20421;-58
2022/04/27 11:39:50;;;;;;;0.47;0.40;;;;;;;30.77;24.85;95080.53;5134743;27;20850;-56
2022/04/27 11:42:19;;;;;;;0.50;0.50;;;;;;;31.76;23.67;95073.31;5134599;27;20504;-56
2022/04/27 11:44:58;;;;;;;1.07;0.83;;;;;;;31.85;24.03;95071.59;5134337;27;21089;-56
2022/04/27 11:47:28;;;;;;;0.60;0.43;;;;;;;33.39;22.77;95066.09;5134378;27;20970;-57
2022/04/27 11:49:58;;;;;;;0.40;0.40;;;;;;;34.29;21.62;95056.41;5134425;27;20916;-57
2022/04/27 11:52:27;;;;;;;0.97;0.97;;;;;;;33.65;22.13;95051.50;5134449;27;20433;-57
2022/04/27 11:55:01;;;;;;;1.03;0.53;;;;;;;32.59;22.83;95065.13;5134591;27;20513;-56
2022/04/27 11:57:30;;;;;;;0.47;0.40;;;;;;;31.75;23.74;95056.06;5134445;27;20513;-57